Vremea acum in Zlatna - Romania

Vrei sa afli care e starea vremii acum in Arad - Romania? Dorim sa iti furnizam starea vremii pentru Arad - Romania. Starea vremii Arad - Romania pentru astazi.

Vremea acum in Zlatna

Temperatura: 9.2 °C

Este: Senin
Se simte ca: 8.8 °C
Innorat: 7 %
Precipitatii: 0 %
Presiune atmosferica: 1018 hPa
Umiditate: 79%
Vizibilitate: 10 km
Vantul bate din W cu 5.4 km/h

Evolutia vremii in Zlatna pe ore

Ora: 06:00
Senin
Temperatura: 7.6°C
Sansa de precipitatii: 0%
Ora Descriere Temp Se simte Precipitatii Umiditate Vant
00:00Senin10.3°10.5°0%77%WNW 3.6 KM/H
01:00Senin9.8°9.5°0%78%W 5 KM/H
02:00Senin9.2°8.8°0%79%W 5.4 KM/H
03:00Senin8.8°8.2°0%80%W 5.4 KM/H
04:00Senin8.3°7.8°0%81%W 5 KM/H
05:00Senin7.7°0%81%WSW 4.3 KM/H
06:00Senin7.6°7.6°0%82%W 3.6 KM/H
07:00Senin8.5°8.6°0%79%WNW 2.2 KM/H
08:00Senin12.9°12.9°0%71%NE 0.7 KM/H
09:00Senin15.5°15.5°0%65%E 2.5 KM/H
10:00Senin17.5°17.5°0%60%E 5 KM/H
11:00Senin19.2°19.2°0%56%E 6.8 KM/H
12:00Senin20.9°20.9°0%52%E 7.6 KM/H
13:00Senin22.3°24.4°0%47%E 7.9 KM/H
14:00Senin23.3°24.5°0%41%E 7.6 KM/H
15:00Senin23.9°24.5°0%36%E 6.8 KM/H
16:00Senin24.2°24.6°0%34%E 6.1 KM/H
17:00Senin24.1°24.5°0%34%ESE 7.2 KM/H
18:00Senin23.8°24.6°0%39%SE 7.9 KM/H
19:00Senin21.6°21.6°0%51%SE 6.5 KM/H
20:00Senin16.7°16.7°0%55%SSE 3.6 KM/H
21:00Senin14°14°0%57%WSW 2.9 KM/H
22:00Senin12.9°13°0%61%WSW 5.4 KM/H
23:00Senin12.1°11.7°0%63%WSW 6.8 KM/H




tutorials